createdAt,value
2022-09-07T00:00:58.534Z,100.00
2022-09-07T00:03:26.637Z,100.00
2022-09-07T00:05:54.777Z,100.00
2022-09-07T00:08:24.760Z,100.00
2022-09-07T00:10:54.858Z,100.00
2022-09-07T00:13:25.065Z,100.00
2022-09-07T00:15:53.309Z,100.00
2022-09-07T00:18:21.844Z,100.00
2022-09-07T00:20:59.598Z,100.00
2022-09-07T00:23:28.835Z,100.00
2022-09-07T00:26:00.548Z,100.00
2022-09-07T00:28:29.925Z,100.00
2022-09-07T00:30:58.082Z,100.00
2022-09-07T00:33:26.288Z,100.00
2022-09-07T00:35:54.232Z,100.00
2022-09-07T00:38:22.352Z,100.00
2022-09-07T00:40:50.253Z,100.00
2022-09-07T00:43:36.132Z,100.00
2022-09-07T00:46:07.532Z,100.00
2022-09-07T00:48:40.009Z,100.00
2022-09-07T00:51:10.781Z,100.00
2022-09-07T00:53:43.611Z,100.00
2022-09-07T00:56:12.917Z,100.00
2022-09-07T00:58:44.367Z,100.00
2022-09-07T01:01:14.639Z,100.00
2022-09-07T01:03:46.417Z,100.00
2022-09-07T01:06:18.175Z,100.00
2022-09-07T01:08:49.776Z,100.00
2022-09-07T01:11:19.454Z,100.00
2022-09-07T01:13:48.959Z,100.00
2022-09-07T01:16:30.279Z,100.00
2022-09-07T01:19:09.478Z,100.00
2022-09-07T01:21:52.253Z,100.00
2022-09-07T01:24:42.701Z,100.00
2022-09-07T01:27:54.375Z,100.00
2022-09-07T01:30:24.695Z,100.00
2022-09-07T01:33:13.835Z,100.00
2022-09-07T01:35:48.883Z,100.00
2022-09-07T01:38:22.514Z,100.00
2022-09-07T01:40:58.378Z,100.00
2022-09-07T01:43:36.495Z,100.00
2022-09-07T01:46:10.216Z,100.00
2022-09-07T01:48:41.888Z,100.00
2022-09-07T01:51:09.970Z,100.00
2022-09-07T01:53:43.149Z,100.00
2022-09-07T01:56:13.640Z,100.00
2022-09-07T01:58:45.947Z,100.00
2022-09-07T02:01:21.213Z,100.00
2022-09-07T02:03:52.651Z,100.00
2022-09-07T02:06:24.440Z,100.00
2022-09-07T02:08:58.395Z,100.00
2022-09-07T02:11:32.582Z,100.00
2022-09-07T02:14:09.402Z,100.00
2022-09-07T02:16:41.245Z,100.00
2022-09-07T02:19:14.105Z,100.00
2022-09-07T02:21:46.400Z,100.00
2022-09-07T02:24:19.288Z,100.00
2022-09-07T02:26:50.662Z,100.00
2022-09-07T02:29:20.040Z,100.00
2022-09-07T02:31:48.200Z,100.00
2022-09-07T02:34:16.085Z,100.00
2022-09-07T02:36:48.060Z,100.00
2022-09-07T02:39:16.087Z,100.00
2022-09-07T02:41:45.563Z,100.00
2022-09-07T02:44:18.246Z,100.00
2022-09-07T02:47:07.434Z,100.00
2022-09-07T02:49:58.056Z,100.00
2022-09-07T02:52:37.107Z,100.00
2022-09-07T02:55:16.861Z,100.00
2022-09-07T02:57:55.900Z,100.00
2022-09-07T03:00:26.348Z,100.00
2022-09-07T03:03:07.722Z,100.00
2022-09-07T03:05:43.453Z,100.00
2022-09-07T03:08:14.998Z,100.00
2022-09-07T03:10:44.231Z,100.00
2022-09-07T03:13:21.203Z,100.00
2022-09-07T03:15:53.587Z,100.00
2022-09-07T03:18:25.365Z,100.00
2022-09-07T03:20:53.422Z,100.00
2022-09-07T03:23:21.362Z,100.00
2022-09-07T03:25:49.933Z,100.00
2022-09-07T03:28:17.847Z,100.00
2022-09-07T03:30:47.469Z,100.00
2022-09-07T03:33:16.872Z,100.00
2022-09-07T03:35:47.293Z,100.00
2022-09-07T03:38:15.248Z,100.00
2022-09-07T03:40:43.193Z,100.00
2022-09-07T03:43:11.080Z,100.00
2022-09-07T03:45:39.061Z,100.00
2022-09-07T03:48:06.969Z,100.00
2022-09-07T03:50:34.894Z,100.00
2022-09-07T03:53:04.205Z,100.00
2022-09-07T03:55:32.096Z,100.00
2022-09-07T03:57:59.988Z,100.00
2022-09-07T04:00:27.927Z,100.00
2022-09-07T04:02:56.181Z,100.00
2022-09-07T04:05:24.300Z,100.00
2022-09-07T04:07:52.548Z,100.00
2022-09-07T04:10:21.804Z,100.00
2022-09-07T04:12:50.586Z,100.00
2022-09-07T04:15:18.498Z,100.00
2022-09-07T04:17:46.402Z,100.00
2022-09-07T04:20:14.355Z,100.00
2022-09-07T04:22:43.187Z,100.00
2022-09-07T04:25:11.076Z,100.00
2022-09-07T04:27:40.413Z,100.00
2022-09-07T04:30:09.525Z,100.00
2022-09-07T04:32:37.479Z,100.00
2022-09-07T04:35:06.144Z,100.00
2022-09-07T04:37:34.125Z,100.00
2022-09-07T04:40:02.069Z,100.00
2022-09-07T04:42:31.139Z,100.00
2022-09-07T04:45:00.446Z,100.00
2022-09-07T04:47:30.649Z,100.00
2022-09-07T04:49:58.739Z,100.00
2022-09-07T04:52:26.649Z,100.00
2022-09-07T04:54:54.554Z,100.00
2022-09-07T04:57:25.900Z,100.00
2022-09-07T04:59:53.912Z,100.00
2022-09-07T05:02:23.357Z,100.00
2022-09-07T05:04:51.278Z,100.00
2022-09-07T05:07:19.239Z,100.00
2022-09-07T05:09:48.305Z,100.00
2022-09-07T05:12:16.375Z,100.00
2022-09-07T05:14:44.589Z,100.00
2022-09-07T05:17:12.612Z,100.00
2022-09-07T05:19:41.893Z,100.00
2022-09-07T05:22:09.850Z,100.00
2022-09-07T05:24:37.931Z,100.00
2022-09-07T05:27:06.138Z,100.00
2022-09-07T09:06:54.349Z,100.00
2022-09-07T09:09:31.787Z,100.00
2022-09-07T09:12:10.883Z,100.00
2022-09-07T09:14:55.138Z,100.00
2022-09-07T09:17:29.455Z,100.00
2022-09-07T09:20:05.648Z,100.00
2022-09-07T09:22:36.233Z,100.00
2022-09-07T09:25:15.975Z,100.00
2022-09-07T09:27:44.088Z,100.00
2022-09-07T09:30:14.966Z,100.00
2022-09-07T09:32:44.406Z,95.74
2022-09-07T09:35:16.166Z,91.10
2022-09-07T09:37:45.829Z,93.61
2022-09-07T09:40:23.759Z,89.43
2022-09-07T09:43:01.905Z,88.64
2022-09-07T09:46:12.066Z,91.43
2022-09-07T09:48:24.172Z,87.45
2022-09-07T09:53:57.575Z,87.22
2022-09-07T09:56:39.082Z,83.71
2022-09-07T10:05:26.986Z,80.57
2022-09-07T10:07:54.998Z,80.99
2022-09-07T10:10:25.068Z,80.86
2022-09-07T10:38:33.177Z,71.84
2022-09-07T10:41:05.822Z,72.76
2022-09-07T10:43:43.284Z,75.55
2022-09-07T10:49:25.465Z,72.77
2022-09-07T10:52:03.078Z,70.87
2022-09-07T10:54:43.484Z,71.00
2022-09-07T10:57:30.017Z,70.64
2022-09-07T11:00:09.645Z,70.56
2022-09-07T11:06:20.018Z,69.77
2022-09-07T11:09:32.613Z,67.87
2022-09-07T11:12:06.585Z,69.56
2022-09-07T11:14:40.313Z,67.84
2022-09-07T11:17:16.621Z,66.26
2022-09-07T11:19:51.223Z,68.07
2022-09-07T11:22:27.455Z,68.15
2022-09-07T11:27:52.405Z,65.58
2022-09-07T11:30:23.294Z,66.33
2022-09-07T11:33:05.985Z,66.43
2022-09-07T11:35:45.932Z,64.66
2022-09-07T11:38:26.873Z,66.51
2022-09-07T11:41:09.237Z,69.44
2022-09-07T11:43:42.836Z,65.69
2022-09-07T11:57:49.005Z,63.16
2022-09-07T12:00:21.931Z,61.98
2022-09-07T12:03:22.868Z,60.43
2022-09-07T12:06:12.259Z,62.80
2022-09-07T12:08:58.463Z,62.19
2022-09-07T12:11:43.266Z,64.11
2022-09-07T12:14:28.315Z,57.88
2022-09-07T12:17:19.748Z,58.47
2022-09-07T12:19:47.782Z,61.23
2022-09-07T12:22:23.162Z,58.46
2022-09-07T12:24:52.528Z,61.71
2022-09-07T12:27:47.624Z,62.02
2022-09-07T12:30:53.279Z,61.98
2022-09-07T12:33:24.892Z,61.48
2022-09-07T12:35:54.862Z,65.52
2022-09-07T12:39:00.074Z,63.99
2022-09-07T12:44:47.480Z,63.36
2022-09-07T12:47:31.841Z,61.73
2022-09-07T12:50:28.468Z,63.46
2022-09-07T12:53:26.311Z,63.79
2022-09-07T12:56:22.773Z,63.24
2022-09-07T12:59:01.487Z,63.79
2022-09-07T13:01:44.230Z,63.60
2022-09-07T13:04:31.436Z,62.40
2022-09-07T13:07:13.544Z,62.70
2022-09-07T13:09:42.495Z,61.65
2022-09-07T13:15:41.471Z,63.17
2022-09-07T13:18:41.094Z,60.30
2022-09-07T13:21:32.431Z,62.31
2022-09-07T13:24:47.346Z,62.50
2022-09-07T13:27:46.713Z,64.98
2022-09-07T13:30:45.104Z,64.00
2022-09-07T13:33:46.033Z,65.27
2022-09-07T13:36:41.558Z,65.90
2022-09-07T13:39:15.199Z,66.18
2022-09-07T13:41:48.046Z,65.35
2022-09-07T13:44:25.958Z,64.31
2022-09-07T13:47:18.533Z,62.86
2022-09-07T13:50:16.749Z,64.84
2022-09-07T13:53:13.071Z,65.59
2022-09-07T13:55:50.825Z,65.04
2022-09-07T13:58:20.071Z,65.31
2022-09-07T14:00:55.917Z,64.90
2022-09-07T14:03:26.989Z,65.23
2022-09-07T14:06:31.403Z,64.10
2022-09-07T14:09:03.029Z,65.94
2022-09-07T14:11:40.657Z,63.45
2022-09-07T14:14:10.575Z,62.65
2022-09-07T14:16:39.215Z,61.43
2022-09-07T14:19:12.661Z,60.28
2022-09-07T14:21:41.438Z,60.11
2022-09-07T14:24:20.987Z,60.80
2022-09-07T14:26:49.194Z,62.38
2022-09-07T14:29:25.618Z,59.32
2022-09-07T14:31:54.403Z,59.14
2022-09-07T14:34:25.769Z,60.88
2022-09-07T14:36:54.986Z,60.61
2022-09-07T14:39:25.637Z,61.21
2022-09-07T14:41:54.008Z,61.31
2022-09-07T14:44:36.791Z,60.37
2022-09-07T14:47:13.134Z,59.96
2022-09-07T14:49:41.720Z,62.85
2022-09-07T14:52:19.597Z,64.46
2022-09-07T14:54:52.541Z,61.08
2022-09-07T14:57:32.409Z,62.23
2022-09-07T15:00:22.009Z,61.75
2022-09-07T15:02:49.842Z,61.18
2022-09-07T15:05:22.549Z,63.13
2022-09-07T15:07:52.452Z,60.70
2022-09-07T15:10:35.336Z,61.98
2022-09-07T15:13:05.191Z,61.14
2022-09-07T15:15:34.687Z,59.06
2022-09-07T15:18:08.828Z,61.75
2022-09-07T15:20:43.289Z,58.68
2022-09-07T15:23:13.386Z,58.42
2022-09-07T15:25:49.650Z,58.42
2022-09-07T15:34:02.806Z,59.26
2022-09-07T15:36:32.117Z,58.57
2022-09-07T15:39:00.698Z,57.90
2022-09-07T15:41:30.270Z,58.37
2022-09-07T15:43:58.328Z,59.11
2022-09-07T15:46:26.476Z,60.70
2022-09-07T15:48:56.858Z,60.83
2022-09-07T15:54:14.375Z,62.22
2022-09-07T15:57:48.115Z,61.64
2022-09-07T15:59:32.292Z,62.05
2022-09-07T16:02:00.349Z,62.76
2022-09-07T16:04:28.711Z,60.83
2022-09-07T16:06:56.607Z,64.33
2022-09-07T16:09:24.713Z,63.69
2022-09-07T16:11:54.112Z,63.70
2022-09-07T16:14:22.269Z,63.07
2022-09-07T16:19:40.993Z,63.50
2022-09-07T16:22:09.656Z,64.77
2022-09-07T16:24:37.772Z,65.24
2022-09-07T16:27:07.140Z,67.06
2022-09-07T16:29:34.994Z,69.99
2022-09-07T16:34:51.237Z,74.83
2022-09-07T16:37:19.098Z,77.51
2022-09-07T16:39:46.904Z,80.04
2022-09-07T16:42:16.084Z,80.87
2022-09-07T16:44:43.908Z,81.75
2022-09-07T16:47:12.760Z,83.05
2022-09-07T16:49:40.512Z,83.79
2022-09-07T16:52:10.654Z,85.16
2022-09-07T16:54:38.670Z,86.96
2022-09-07T16:57:06.563Z,87.59
2022-09-07T16:59:35.739Z,87.96
2022-09-07T17:02:03.529Z,84.41
2022-09-07T17:04:31.371Z,84.24
2022-09-07T17:06:59.237Z,82.21
2022-09-07T17:09:28.668Z,82.67
2022-09-07T17:11:56.594Z,81.86
2022-09-07T17:14:24.388Z,83.20
2022-09-07T17:16:53.581Z,83.29
2022-09-07T17:19:29.739Z,83.62
2022-09-07T17:21:59.692Z,83.88
2022-09-07T17:24:27.637Z,85.58
2022-09-07T17:26:55.471Z,86.00
2022-09-07T17:29:23.481Z,86.37
2022-09-07T17:34:40.550Z,85.81
2022-09-07T17:37:09.362Z,87.78
2022-09-07T17:39:38.695Z,88.55
2022-09-07T17:42:07.339Z,89.34
2022-09-07T17:44:38.027Z,89.98
2022-09-07T17:47:06.669Z,90.07
2022-09-07T17:49:34.650Z,90.10
2022-09-07T17:52:04.088Z,91.31
2022-09-07T17:54:31.966Z,92.53
2022-09-07T17:56:59.855Z,93.33
2022-09-07T18:02:15.620Z,95.97
2022-09-07T18:04:43.777Z,95.02
2022-09-07T18:07:13.113Z,95.99
2022-09-07T18:09:41.053Z,95.90
2022-09-07T18:12:08.904Z,96.84
2022-09-07T18:14:36.756Z,98.38
2022-09-07T18:17:05.112Z,100.00
2022-09-07T18:19:32.900Z,100.00
2022-09-07T18:22:02.712Z,100.00
2022-09-07T18:24:32.049Z,100.00
2022-09-07T18:26:59.897Z,100.00
2022-09-07T18:29:32.531Z,100.00
2022-09-07T18:32:02.592Z,100.00
2022-09-07T18:34:31.874Z,100.00
2022-09-07T18:37:00.246Z,100.00
2022-09-07T18:39:28.683Z,100.00
2022-09-07T18:41:58.125Z,100.00
2022-09-07T18:47:21.799Z,100.00
2022-09-07T18:49:51.324Z,100.00
2022-09-07T18:55:08.529Z,100.00
2022-09-07T18:57:38.301Z,100.00
2022-09-07T19:00:10.002Z,100.00
2022-09-07T19:02:38.330Z,100.00
2022-09-07T19:07:55.031Z,100.00
2022-09-07T19:10:23.124Z,100.00
2022-09-07T19:12:52.299Z,100.00
2022-09-07T19:15:21.175Z,100.00
2022-09-07T19:17:49.046Z,100.00
2022-09-07T19:20:17.449Z,100.00
2022-09-07T19:22:45.266Z,100.00
2022-09-07T19:25:13.302Z,100.00
2022-09-07T19:27:41.123Z,100.00
2022-09-07T19:30:11.397Z,100.00
2022-09-07T19:32:39.242Z,100.00
2022-09-07T19:35:07.742Z,100.00
2022-09-07T19:37:35.662Z,100.00
2022-09-07T19:40:03.979Z,100.00
2022-09-07T19:42:31.907Z,100.00
2022-09-07T19:44:59.666Z,100.00
2022-09-07T19:47:28.819Z,100.00
2022-09-07T19:49:56.593Z,100.00
2022-09-07T19:52:24.384Z,100.00
2022-09-07T19:54:52.174Z,100.00
2022-09-07T19:57:19.916Z,100.00
2022-09-07T19:59:47.717Z,100.00
2022-09-07T20:02:15.561Z,100.00
2022-09-07T20:04:44.651Z,100.00
2022-09-07T20:07:13.404Z,100.00
2022-09-07T20:09:41.203Z,100.00
2022-09-07T20:12:09.393Z,100.00
2022-09-07T20:14:37.152Z,100.00
2022-09-07T20:17:05.061Z,100.00
2022-09-07T20:19:32.827Z,100.00
2022-09-07T20:22:01.924Z,100.00
2022-09-07T20:24:29.749Z,100.00
2022-09-07T20:26:57.602Z,100.00
2022-09-07T20:29:28.323Z,100.00
2022-09-07T20:31:57.585Z,100.00
2022-09-07T20:34:25.572Z,100.00
2022-09-07T20:36:53.891Z,100.00
2022-09-07T20:39:23.782Z,100.00
2022-09-07T20:41:51.599Z,100.00
2022-09-07T20:44:19.570Z,100.00
2022-09-07T20:46:47.564Z,100.00
2022-09-07T20:49:15.363Z,100.00
2022-09-07T20:51:43.117Z,100.00
2022-09-07T20:54:11.211Z,100.00
2022-09-07T20:56:40.320Z,100.00
2022-09-07T20:59:08.076Z,100.00
2022-09-07T21:01:36.617Z,100.00
2022-09-07T21:04:06.173Z,100.00
2022-09-07T21:06:34.364Z,100.00
2022-09-07T21:09:02.241Z,100.00
2022-09-07T21:11:32.162Z,100.00
2022-09-07T21:14:03.210Z,100.00
2022-09-07T21:16:31.135Z,100.00
2022-09-07T21:19:01.198Z,100.00
2022-09-07T21:21:30.304Z,100.00
2022-09-07T21:23:59.675Z,100.00
2022-09-07T21:26:28.470Z,100.00
2022-09-07T21:28:57.655Z,100.00
2022-09-07T21:31:27.273Z,100.00
2022-09-07T21:33:56.747Z,100.00
2022-09-07T21:36:25.035Z,100.00
2022-09-07T21:38:52.823Z,100.00
2022-09-07T21:41:22.717Z,100.00
2022-09-07T21:43:50.528Z,100.00
2022-09-07T21:46:19.711Z,100.00
2022-09-07T21:48:49.087Z,100.00
2022-09-07T21:51:17.223Z,100.00
2022-09-07T21:53:45.079Z,100.00
2022-09-07T21:56:15.011Z,100.00
2022-09-07T21:58:43.698Z,100.00
2022-09-07T22:01:14.326Z,100.00
2022-09-07T22:03:42.225Z,100.00
2022-09-07T22:06:11.734Z,100.00
2022-09-07T22:08:41.010Z,100.00
2022-09-07T22:11:10.728Z,100.00
2022-09-07T22:13:39.126Z,100.00
2022-09-07T22:16:07.629Z,100.00
2022-09-07T22:18:37.425Z,100.00
2022-09-07T22:21:07.413Z,100.00
2022-09-07T22:23:38.797Z,100.00
2022-09-07T22:26:07.826Z,100.00
2022-09-07T22:28:36.338Z,100.00
2022-09-07T22:31:12.291Z,100.00
2022-09-07T22:33:40.661Z,100.00
2022-09-07T22:36:13.665Z,100.00
2022-09-07T22:38:44.006Z,100.00
2022-09-07T22:41:13.804Z,100.00
2022-09-07T22:43:42.656Z,100.00
2022-09-07T22:46:11.189Z,100.00
2022-09-07T22:48:40.527Z,100.00
2022-09-07T22:51:09.264Z,100.00
2022-09-07T22:53:39.257Z,100.00
2022-09-07T22:56:10.648Z,100.00
2022-09-07T22:58:39.187Z,100.00
2022-09-07T23:01:07.897Z,100.00
2022-09-07T23:03:36.176Z,100.00
2022-09-07T23:06:04.650Z,100.00
2022-09-07T23:08:32.641Z,100.00
2022-09-07T23:11:05.296Z,100.00
2022-09-07T23:13:34.696Z,100.00
2022-09-07T23:16:06.157Z,100.00
2022-09-07T23:18:34.744Z,100.00
2022-09-07T23:21:03.307Z,100.00
2022-09-07T23:23:31.287Z,100.00
2022-09-07T23:26:02.310Z,100.00
2022-09-07T23:28:32.221Z,100.00
2022-09-07T23:31:01.578Z,100.00
2022-09-07T23:33:29.427Z,100.00
2022-09-07T23:35:58.647Z,100.00
2022-09-07T23:38:26.793Z,100.00
2022-09-07T23:40:55.304Z,100.00
2022-09-07T23:43:23.835Z,100.00
2022-09-07T23:45:52.020Z,100.00
2022-09-07T23:48:21.616Z,100.00
2022-09-07T23:50:49.877Z,100.00
2022-09-07T23:53:18.630Z,100.00
2022-09-07T23:55:46.627Z,100.00
2022-09-07T23:58:14.532Z,100.00
